Tiempo atmosférico en la estación meteorológica de Almadén, Ciudad Real (535 m.)



Fecha
DESCASC
Temp. máxima en grados centígrados (hora)
DESCASC
Temp. mínima en grados centígrados (hora)
DESCASC
Temp. media en grados centígrados
DESCASC
Racha de viento máxima en m/sg (hora)
DESCASC
Velocidad máxima media en intervalos de 10 minutos(hora)
DESCASC
Precipitaciones diarias en mm
DESCASC
Precipitaciones de 00:00 a 06:00 en mm
DESCASC
Precipitaciones de 06:00 a 12:00 en mm
DESCASC
Precipitaciones de 12:00 a 18:00 en mm
DESCASC
Precipitaciones de 18:00 a 24:00 en mm
DESCASC
06-12-2018 19.1 (16:20) 7.2 (08:30) 13.2 3.06 (14:20) 1.94 (14:00) 0 0 0 0 0
05-12-2018 22.7 (14:40) 9.1 (05:20) 15.9 2.5 (17:50) 1.39 (14:40) 0 0 0 0 0
04-12-2018 22.6 (16:30) 7.6 (08:10) 15.1 2.5 (10:30) 1.39 (04:30) 0 0 0 0 0
03-12-2018 19.1 (15:50) 5.1 (00:00) 12.1 2.5 (14:50) 1.39 (22:40) 0 0 0 0 0
02-12-2018 16.2 (15:50) 4.4 (00:00) 10.3 3.61 (11:20) 2.5 (11:10) 0 0 0 0 0
01-12-2018 14.3 (15:20) 3.2 (00:00) 8.8 5 (11:10) 3.06 (11:10) 0 0 0 0 0
30-11-2018 13.1 (15:20) 6.8 (00:00) 10 7.78 (00:40) 4.17 (00:10) 2.4 2.2 0 0.2 0
29-11-2018 17.8 (15:30) 2.6 (00:00) 10.2 9.72 (19:00) 6.39 (19:00) 0.4 0 0 0 0.4
28-11-2018 18.4 (16:00) 3.3 (00:00) 10.8 2.22 (11:50) 1.39 (13:20) 0 0 0 0 0
27-11-2018 15.1 (15:30) 3.8 (00:00) 9.5 3.33 (13:50) 2.22 (12:40) 0 0 0 0 0
26-11-2018 12.7 (00:20) 6.9 (23:59) 9.8 18.61 (02:30) 8.89 (02:40) 0.2 0.2 0 0 0
25-11-2018 15.7 (14:30) 10 (00:00) 12.8 15.83 (03:50) 7.5 (01:20) 10 0.8 0.6 0 8.6
24-11-2018 15 (15:30) 2.8 (00:00) 8.9 11.67 (23:59) 7.22 (23:59) 0 0 0 0 0
23-11-2018 13.4 (15:10) 6.2 (00:00) 9.8 5 (01:20) 2.78 (01:10) 1.2 1 0.2 0 0
22-11-2018 12.9 (14:10) 8.6 (00:00) 10.8 7.78 (15:00) 4.72 (15:10) 0.4 0.2 0 0 0.2
21-11-2018 13.3 (12:20) 8.6 (00:00) 11 8.89 (12:00) 5 (12:10) 1.4 0 0 0.4 1
20-11-2018 13.4 (15:50) 9.5 (00:00) 11.4 12.78 (19:30) 6.11 (15:30) 4.4 0.2 1.8 0.6 1.8
19-11-2018 12.8 (16:00) 9.5 (00:00) 11.2 3.33 (18:40) 1.67 (22:10) 0.2 0 0 0 0.2
18-11-2018 13.3 (01:30) 9.8 (00:00) 11.6 6.11 (00:40) 2.78 (00:40) 5.8 0 0.2 4.2 1.4
17-11-2018 20.8 (15:20) 9.6 (00:00) 15.2 4.17 (11:10) 2.22 (21:50) 0 0 0 0 0
16-11-2018 20.8 (15:40) 12 (00:00) 16.4 5 (12:40) 2.22 (06:00) 0 0 0 0 0
15-11-2018 20.1 (15:30) 9.1 (00:00) 14.6 5 (01:20) 2.5 (01:00) 0 0 0 0 0
14-11-2018 16.7 (17:00) 9.8 (00:00) 13.3 5.83 (15:00) 3.61 (15:00) 0 0 0 0 0
13-11-2018 19.2 (14:10) 9.4 (00:00) 14.3 6.11 (16:20) 2.78 (16:00) 0.2 0.2 0 0 0
12-11-2018 15 (15:30) 10.9 (00:00) 12.9 9.72 (08:30) 5.56 (08:20) 2.6 0 2.4 0.2 0
11-11-2018 18.4 (15:10) 12.4 (00:00) 15.4 9.44 (03:40) 6.11 (16:00) 1.2 0.8 0.2 0.2 0
10-11-2018 15 (15:40) 10.6 (00:00) 12.8 11.94 (15:50) 7.78 (15:50) 0.2 0 0 0 0.2
09-11-2018 14.1 (15:00) 6.3 (00:00) 10.2 8.33 (04:50) 3.61 (05:20) 0.2 0.2 0 0 0

Gráficas

Temp. máximas Temp. mínimas Temp. medias Precipitaciones Rachas de viento máximas Velocidades máximas media en intervalos de 10 minutos

Datos horarios

Fecha y hora oficial Temperatura (ºC) Velocidad del viento (km/h) Dirección del viento Racha (km/h) Dirección de racha Precipitación (mm) Presión (hPa) Tendencia (hPa) Humedad (%)
2018-12-08 23:00:00 8.6 0 Calma 4 Nordeste 0 -- -- 97
2018-12-08 22:00:00 8.8 3 Norte 5 Nordeste 0 -- -- 97
2018-12-08 21:00:00 9.2 0 Calma 5 Norte 0 -- -- 95
2018-12-08 20:00:00 9.5 0 Calma 6 Norte 0 -- -- 94
2018-12-08 19:00:00 10.2 0 Calma 4 Norte 0 -- -- 92
2018-12-08 18:00:00 11.3 0 Calma 8 Sur 0 -- -- 88
2018-12-08 17:00:00 13.7 3 Sur 9 Sur 0 -- -- 80
2018-12-08 16:00:00 14.8 3 Sudoeste 12 Sur 0 -- -- 77
2018-12-08 15:00:00 13.1 3 Sudeste 7 Sur 0 -- -- 88
2018-12-08 14:00:00 9.3 2 Norte 8 Norte 0 -- -- 100
2018-12-08 13:00:00 7.7 3 Norte 11 Nordeste 0 -- -- 100
2018-12-08 12:00:00 7.4 2 Nordeste 10 Nordeste 0 -- -- 100
2018-12-08 11:00:00 7.3 2 Nordeste 9 Este 0 -- -- 100
2018-12-08 10:00:00 7.3 0 Calma 10 Nordeste 0 -- -- 100
2018-12-08 09:00:00 7.4 2 Nordeste 6 Norte 0 -- -- 100
2018-12-08 08:00:00 7.2 2 Nordeste 4 Nordeste 0 -- -- 100
2018-12-08 07:00:00 7.2 0 Calma 4 Sur 0 -- -- 100
2018-12-08 06:00:00 6.8 0 Calma 6 Nordeste 0 -- -- 100
2018-12-08 05:00:00 6.6 3 Norte 6 Norte 0 -- -- 100
2018-12-08 04:00:00 6.8 0 Calma 6 Oeste 0 -- -- 100
2018-12-08 03:00:00 7 0 Calma 7 Noroeste 0 -- -- 100
2018-12-08 02:00:00 6.9 0 Calma 5 Norte 0 -- -- 100
2018-12-08 01:00:00 6.4 0 Calma 4 Nordeste 0 -- -- 100
2018-12-08 00:00:00 6.2 0 Calma 5 Sur 0 -- -- 100
2018-12-07 23:00:00 5.5 0 Calma 3 Nordeste 0 -- -- 100
2018-12-07 22:00:00 6.4 0 Calma 2 Nordeste 0 -- -- 100
2018-12-07 21:00:00 6.6 0 Calma 4 Nordeste 0 -- -- 100
2018-12-07 20:00:00 7.1 0 Calma 4 Sudoeste 0 -- -- 98
2018-12-07 19:00:00 7.7 0 Calma 4 Este 0 -- -- 96
2018-12-07 18:00:00 9.4 0 Calma 4 Norte 0 -- -- 91
2018-12-07 17:00:00 11.9 0 Calma 7 Sur 0 -- -- 85
2018-12-07 16:00:00 9.3 4 Sur 9 Sur 0 -- -- 99
2018-12-07 15:00:00 8.6 4 Sur 10 Sur 0 -- -- 100
2018-12-07 14:00:00 8.8 5 Sur 10 Sur 0 -- -- 100
2018-12-07 13:00:00 8.5 2 Oeste 7 Sur 0 -- -- 100
2018-12-07 12:00:00 7.1 3 Sudoeste 8 Sudoeste 0 -- -- 100
2018-12-07 11:00:00 6.4 0 Calma 5 Sur 0 -- -- 100
2018-12-07 10:00:00 5.8 0 Calma 6 Sudoeste 0 -- -- 100
2018-12-07 09:00:00 5.6 0 Calma 0 Calma 0 -- -- 100
2018-12-07 08:00:00 5.2 0 Calma 2 Norte 0 -- -- 100
2018-12-07 07:00:00 4.8 0 Calma 0 Calma 0 -- -- 99
2018-12-07 06:00:00 4.6 0 Calma 3 Sudoeste 0 -- -- 98
2018-12-07 05:00:00 6.4 0 Calma 0 Calma 0 -- -- 97
2018-12-07 04:00:00 7.5 0 Calma 0 Calma 0 -- -- 98
2018-12-07 03:00:00 7.7 0 Calma 0 Calma 0 -- -- 97
2018-12-07 02:00:00 8.5 0 Calma -- -- 0 -- -- 97
2018-12-07 01:00:00 8.9 0 Calma 0 Calma 0 -- -- 94
2018-12-07 00:00:00 9.6 0 Calma 2 Oeste 0 -- -- 93
2018-12-06 23:00:00 9.8 0 Calma 2 Norte 0 -- -- 92
2018-12-06 22:00:00 10.2 0 Calma 2 Sudeste 0 -- -- 91
2018-12-06 21:00:00 10.8 0 Calma 7 Oeste 0 -- -- 89
2018-12-06 20:00:00 11.3 0 Calma 6 Norte 0 -- -- 87
2018-12-06 19:00:00 11.8 2 Norte 10 Norte 0 -- -- 89
2018-12-06 18:00:00 12.9 0 Calma 6 Norte 0 -- -- 86
2018-12-06 17:00:00 17.1 0 Calma 7 Noroeste 0 -- -- 71
2018-12-06 16:00:00 18.5 3 Oeste 9 Oeste 0 -- -- 64
2018-12-06 15:00:00 17.9 4 Oeste 11 Sur 0 -- -- 67
2018-12-06 14:00:00 17.9 7 Sur 10 Sur 0 -- -- 70
2018-12-06 13:00:00 16.1 5 Sur 9 Sur 0 -- -- 76
2018-12-06 12:00:00 14.3 3 Sudoeste 5 Oeste 0 -- -- 79
2018-12-06 11:00:00 11.5 0 Calma 3 Oeste 0 -- -- 88
2018-12-06 10:00:00 8.5 0 Calma 5 Nordeste 0 -- -- 98
2018-12-06 09:00:00 7.4 2 Este 6 Nordeste 0 -- -- 98
2018-12-06 08:00:00 7.6 0 Calma 2 Sur 0 -- -- 95
2018-12-06 07:00:00 8.2 0 Calma 5 Nordeste 0 -- -- 97
2018-12-06 06:00:00 8.6 2 Nordeste 5 Nordeste 0 -- -- 97
2018-12-06 05:00:00 8.5 0 Calma 4 Nordeste 0 -- -- 95
2018-12-06 04:00:00 9.1 0 Calma 2 Este 0 -- -- 93
2018-12-06 03:00:00 10.3 0 Calma 4 Norte 0 -- -- 90
2018-12-06 02:00:00 11.1 2 Norte 5 Norte 0 -- -- 89
2018-12-06 01:00:00 11.2 2 Norte 4 Nordeste 0 -- -- 88
2018-12-06 00:00:00 11.1 3 Norte 6 Norte 0 -- -- 86
2018-12-05 23:00:00 12 0 Calma 7 Sur 0 -- -- 82
2018-12-05 22:00:00 13.3 2 Nordeste 4 Sur 0 -- -- 78
2018-12-05 21:00:00 13.7 0 Calma 5 Norte 0 -- -- 77
2018-12-05 20:00:00 14 0 Calma 6 Nordeste 0 -- -- 80
2018-12-05 19:00:00 15.5 0 Calma 6 Norte 0 -- -- 73
2018-12-05 18:00:00 16.9 2 Noroeste 9 Sudoeste 0 -- -- 67
2018-12-05 17:00:00 20.6 2 Noroeste 6 Noroeste 0 -- -- 54
2018-12-05 16:00:00 21.8 0 Calma 8 Oeste 0 -- -- 49
2018-12-05 15:00:00 22.4 0 Calma 8 Sudoeste 0 -- -- 50
2018-12-05 14:00:00 21.8 5 Sudoeste 9 Sudoeste 0 -- -- 51
2018-12-05 13:00:00 19.5 4 Sur 6 Sudoeste 0 -- -- 61
2018-12-05 12:00:00 17.2 2 Sudoeste 6 Sur 0 -- -- 69
2018-12-05 11:00:00 13.9 0 Calma 4 Sur 0 -- -- 76
2018-12-05 10:00:00 10.5 0 Calma 5 Nordeste 0 -- -- 87
2018-12-05 09:00:00 9.3 0 Calma 5 Este 0 -- -- 88
2018-12-05 08:00:00 9.3 0 Calma 6 Este 0 -- -- 87
2018-12-05 07:00:00 9.1 0 Calma 3 Este 0 -- -- 90
2018-12-05 06:00:00 9.2 0 Calma 3 Nordeste 0 -- -- 91
2018-12-05 05:00:00 9.4 0 Calma 2 Nordeste 0 -- -- 90
2018-12-05 04:00:00 9.9 0 Calma 2 Nordeste 0 -- -- 89
2018-12-05 03:00:00 10.5 0 Calma 2 Nordeste 0 -- -- 88
2018-12-05 02:00:00 11.1 0 Calma 3 Este 0 -- -- 85
2018-12-05 01:00:00 11.3 0 Calma 5 Sur 0 -- -- 85
2018-12-05 00:00:00 12.2 0 Calma 4 Nordeste 0 -- -- 82
2018-12-04 23:00:00 13.1 0 Calma 6 Este 0 -- -- 79
2018-12-04 22:00:00 13.5 0 Calma 4 Nordeste 0 -- -- 78
2018-12-04 21:00:00 14 2 Nordeste 6 Nordeste 0 -- -- 76
2018-12-04 20:00:00 15.5 0 Calma 6 Este 0 -- -- 67
2018-12-04 19:00:00 16.8 0 Calma 4 Nordeste 0 -- -- 61
2018-12-04 18:00:00 19.2 0 Calma 3 Norte 0 -- -- 56
2018-12-04 17:00:00 22.4 0 Calma 6 Sur 0 -- -- 48
2018-12-04 16:00:00 22.3 4 Sur 6 Sudoeste 0 -- -- 42
2018-12-04 15:00:00 21.8 2 Sur 8 Sur 0 -- -- 51
2018-12-04 14:00:00 20.2 3 Sur 9 Este 0 -- -- 54
2018-12-04 13:00:00 16.7 3 Este 8 Nordeste 0 -- -- 62
2018-12-04 12:00:00 14.2 4 Nordeste 9 Nordeste 0 -- -- 66
2018-12-04 11:00:00 12.2 3 Sudeste 9 Este 0 -- -- 75
2018-12-04 10:00:00 9.4 0 Calma 5 Nordeste 0 -- -- 83
2018-12-04 09:00:00 7.7 4 Nordeste 6 Nordeste 0 -- -- 87
2018-12-04 08:00:00 7.7 3 Nordeste 6 Este 0 -- -- 87
2018-12-04 07:00:00 7.8 2 Norte 8 Nordeste 0 -- -- 88
2018-12-04 06:00:00 8 4 Este 7 Nordeste 0 -- -- 88
2018-12-04 05:00:00 8.2 4 Nordeste 8 Este 0 -- -- 86
2018-12-04 04:00:00 8.4 5 Nordeste 9 Nordeste 0 -- -- 84
2018-12-04 03:00:00 8.6 0 Calma 8 Este 0 -- -- 82
2018-12-04 02:00:00 9.2 3 Este 5 Este 0 -- -- 82
2018-12-04 01:00:00 9.2 0 Calma 6 Este 0 -- -- 85
2018-12-04 00:00:00 9.3 4 Este 6 Este 0 -- -- 86
2018-12-03 23:00:00 10 0 Calma 9 Este 0 -- -- 85
2018-12-03 22:00:00 10.6 2 Nordeste 4 Nordeste 0 -- -- 85
2018-12-03 21:00:00 11.1 3 Nordeste 7 Nordeste 0 -- -- 84
2018-12-03 20:00:00 11.7 0 Calma 5 Norte 0 -- -- 85
2018-12-03 19:00:00 12.6 0 Calma 4 Norte 0 -- -- 80
2018-12-03 18:00:00 14.6 0 Calma 4 Norte 0 -- -- 70
2018-12-03 17:00:00 17.8 0 Calma 6 Oeste 0 -- -- 60
2018-12-03 16:00:00 18.9 0 Calma 9 Sur 0 -- -- 55
2018-12-03 15:00:00 18.4 5 Sur 9 Sur 0 -- -- 59
2018-12-03 14:00:00 16.3 3 Nordeste 8 Sudeste 0 -- -- 55
2018-12-03 13:00:00 14.6 3 Este 8 Sur 0 -- -- 69
2018-12-03 12:00:00 13 3 Sudeste 8 Nordeste 0 -- -- 80
2018-12-03 11:00:00 10.3 0 Calma 3 Noroeste 0 -- -- 96
2018-12-03 10:00:00 7.2 0 Calma 2 Sudoeste 0 -- -- 100
2018-12-03 09:00:00 5.5 0 Calma 3 Nordeste 0 -- -- 100
2018-12-03 08:00:00 5.1 0 Calma 2 Nordeste 0 -- -- 100
2018-12-03 07:00:00 5.7 0 Calma 2 Este 0 -- -- 100
2018-12-03 06:00:00 5.7 0 Calma 4 Nordeste 0 -- -- 99
2018-12-03 05:00:00 6.1 0 Calma 0 Calma 0 -- -- 98
2018-12-03 04:00:00 6.9 0 Calma 2 Nordeste 0 -- -- 98
2018-12-03 03:00:00 7.1 0 Calma 0 Calma 0 -- -- 97
2018-12-03 02:00:00 7.8 0 Calma 2 Norte 0 -- -- 97
2018-12-03 01:00:00 7.9 0 Calma 4 Nordeste 0 -- -- 96
2018-12-03 00:00:00 8.3 0 Calma 4 Sudoeste 0 -- -- 95
2018-12-02 23:00:00 8.9 0 Calma 4 Sudoeste 0 -- -- 93
2018-12-02 22:00:00 9.3 0 Calma 2 Sur 0 -- -- 92
2018-12-02 21:00:00 10.1 0 Calma 4 Noroeste 0 -- -- 92
2018-12-02 20:00:00 10.5 0 Calma 4 Noroeste 0 -- -- 89
2018-12-02 19:00:00 11.5 0 Calma 9 Oeste 0 -- -- 84
2018-12-02 18:00:00 12.3 3 Noroeste 9 Oeste 0 -- -- 81
2018-12-02 17:00:00 15.4 3 Oeste 6 Oeste 0 -- -- 64
2018-12-02 16:00:00 15.9 2 Oeste 6 Oeste 0 -- -- 65
2018-12-02 15:00:00 15.4 2 Noroeste 12 Sudoeste 0 -- -- 65
2018-12-02 14:00:00 13.4 6 Sur 10 Sur 0 -- -- 77
2018-12-02 13:00:00 12 4 Sur 9 Sur 0 -- -- 80
2018-12-02 12:00:00 9.8 7 Sudoeste 13 Sur 0 -- -- 83
2018-12-02 11:00:00 8.8 6 Sur 11 Sur 0 -- -- 90
2018-12-02 10:00:00 6 0 Calma 4 Sur 0 -- -- 99
2018-12-02 09:00:00 4.6 0 Calma 4 Sudoeste 0 -- -- 99
2018-12-02 08:00:00 4.5 0 Calma 2 Este 0 -- -- 98
2018-12-02 07:00:00 4.7 0 Calma 2 Este 0 -- -- 98
2018-12-02 06:00:00 4.9 0 Calma 2 Este 0 -- -- 97
2018-12-02 05:00:00 5.1 0 Calma 3 Sur 0 -- -- 96
2018-12-02 04:00:00 5.5 2 Sur 3 Sur 0 -- -- 95
2018-12-02 03:00:00 6.1 0 Calma 3 Oeste 0 -- -- 93
2018-12-02 02:00:00 6.4 0 Calma 4 Sur 0 -- -- 93
2018-12-02 01:00:00 6.9 2 Sur 3 Sur 0 -- -- 91
2018-12-02 00:00:00 7.4 0 Calma 2 Sur 0 -- -- 89
2018-12-01 23:00:00 8.1 0 Calma 2 Oeste 0 -- -- 86
2018-12-01 22:00:00 8.2 0 Calma 3 Oeste 0 -- -- 85
2018-12-01 21:00:00 8.7 0 Calma 3 Norte 0 -- -- 83
2018-12-01 20:00:00 9.4 0 Calma 4 Noroeste 0 -- -- 79
2018-12-01 19:00:00 9.7 0 Calma 5 Oeste 0 -- -- 77
2018-12-01 18:00:00 10.6 0 Calma 9 Noroeste 0 -- -- 74
2018-12-01 17:00:00 12.4 3 Noroeste 10 Oeste 0 -- -- 68
2018-12-01 16:00:00 13.5 2 Norte 14 Oeste 0 -- -- 58
2018-12-01 15:00:00 13.4 5 Oeste 11 Oeste 0 -- -- 63
2018-12-01 14:00:00 13 3 Oeste 10 Oeste 0 -- -- 62
2018-12-01 13:00:00 11.2 2 Sudoeste 11 Sur 0 -- -- 74
2018-12-01 12:00:00 9.7 5 Sur 18 Sudoeste 0 -- -- 81
2018-12-01 11:00:00 8 11 Sudoeste 16 Sudoeste 0 -- -- 88
2018-12-01 10:00:00 5 0 Calma 3 Oeste 0 -- -- 99
2018-12-01 09:00:00 3.4 0 Calma 7 Sur 0 -- -- 97
2018-12-01 08:00:00 3.4 0 Calma 4 Sur 0 -- -- 99
2018-12-01 07:00:00 3.5 0 Calma 4 Nordeste 0 -- -- 98
2018-12-01 06:00:00 3.6 0 Calma 6 Sur 0 -- -- 97
2018-12-01 05:00:00 4.9 2 Sur 4 Sur 0 -- -- 96
2018-12-01 04:00:00 5.1 0 Calma 3 Oeste 0 -- -- 96
2018-12-01 03:00:00 5.2 0 Calma 3 Nordeste 0 -- -- 96
2018-12-01 02:00:00 5.5 0 Calma 3 Nordeste 0 -- -- 94
2018-12-01 01:00:00 6.1 0 Calma 3 Nordeste 0 -- -- 92
2018-12-01 00:00:00 6.8 0 Calma 2 Oeste 0 -- -- 89
2018-11-30 23:00:00 7.4 0 Calma 2 Este 0 -- -- 86
2018-11-30 22:00:00 7.6 0 Calma 3 Norte 0 -- -- 85
2018-11-30 21:00:00 8.3 0 Calma 5 Norte 0 -- -- 83
2018-11-30 20:00:00 8.8 0 Calma 4 Oeste 0 -- -- 83
2018-11-30 19:00:00 9.3 0 Calma 4 Norte 0 -- -- 81
2018-11-30 18:00:00 10.7 0 Calma 7 Norte 0 -- -- 76
2018-11-30 17:00:00 12.9 3 Noroeste 14 Norte 0 -- -- 66
2018-11-30 16:00:00 12.9 4 Norte 19 Norte 0 -- -- 67
2018-11-30 15:00:00 12.7 2 Noroeste 11 Norte 0 -- -- 71
2018-11-30 14:00:00 12 2 Noroeste 10 Oeste 0.2 -- -- 75
2018-11-30 13:00:00 10.7 3 Norte 12 Oeste 0 -- -- 78
2018-11-30 12:00:00 9.3 2 Noroeste 18 Norte 0 -- -- 86
2018-11-30 11:00:00 8.3 5 Norte 15 Norte 0 -- -- 92
2018-11-30 10:00:00 8.4 3 Noroeste 12 Norte 0 -- -- 95
2018-11-30 09:00:00 8.6 3 Noroeste 15 Norte 0 -- -- 99
2018-11-30 08:00:00 9.4 2 Oeste 15 Oeste 0 -- -- 99
2018-11-30 07:00:00 9.7 4 Oeste 18 Noroeste 0 -- -- 100
2018-11-30 06:00:00 10.1 3 Noroeste 14 Oeste 0 -- -- 100
2018-11-30 05:00:00 9.9 9 Sudoeste 18 Oeste 0 -- -- 100
2018-11-30 04:00:00 9.4 0 Calma 14 Sudoeste 0.2 -- -- 100
2018-11-30 03:00:00 9.2 6 Sudoeste 17 Sudoeste 0.4 -- -- 100
2018-11-30 02:00:00 9.3 8 Sur 23 Sur 0.2 -- -- 99
2018-11-30 01:00:00 9.2 9 Sur 28 Sur 1.4 -- -- 98
2018-11-30 00:00:00 9.3 13 Sur 31 Sur 0.4 -- -- 95
2018-11-29 23:00:00 9.9 17 Sur 30 Sur 0 -- -- 87
2018-11-29 22:00:00 10.4 11 Sur 21 Sudoeste 0 -- -- 87
2018-11-29 21:00:00 11.1 10 Sudoeste 23 Sudoeste 0 -- -- 79
2018-11-29 20:00:00 11.6 15 Sudoeste 35 Sur 0 -- -- 76
2018-11-29 19:00:00 13.6 23 Sur 35 Sur 0 -- -- 63
2018-11-29 18:00:00 14.3 8 Sudoeste 16 Sudoeste 0 -- -- 50
2018-11-29 17:00:00 15.3 5 Sudoeste 16 Sudoeste 0 -- -- 53
2018-11-29 16:00:00 17.3 7 Sudoeste 18 Oeste 0 -- -- 46
2018-11-29 15:00:00 17.5 9 Sudoeste 20 Sur 0 -- -- 48
2018-11-29 14:00:00 17.1 6 Sudoeste 16 Sur 0 -- -- 46
2018-11-29 13:00:00 15 10 Sudoeste 13 Sur 0 -- -- 51
2018-11-29 12:00:00 13 7 Sur 15 Sur 0 -- -- 57
2018-11-29 11:00:00 9.7 0 Calma 4 Nordeste 0 -- -- 79
2018-11-29 10:00:00 4.6 0 Calma 6 Nordeste 0 -- -- 88
2018-11-29 09:00:00 2.6 0 Calma 2 Sur 0 -- -- 87
2018-11-29 08:00:00 2.8 0 Calma 2 Norte 0 -- -- 85
2018-11-29 07:00:00 3.7 0 Calma 3 Nordeste 0 -- -- 81
2018-11-29 06:00:00 3.8 0 Calma 2 Nordeste 0 -- -- 83
2018-11-29 05:00:00 4 0 Calma 2 Nordeste 0 -- -- 84
2018-11-29 04:00:00 4.7 0 Calma 3 Sudeste 0 -- -- 82
2018-11-29 03:00:00 5.2 0 Calma 3 Sur 0 -- -- 83
2018-11-29 02:00:00 5.7 0 Calma 2 Sudoeste 0 -- -- 81
2018-11-29 01:00:00 6.3 0 Calma 2 Este 0 -- -- 79
2018-11-29 00:00:00 6.9 0 Calma 3 Sudeste 0 -- -- 76
2018-11-28 23:00:00 7.8 0 Calma 3 Nordeste 0 -- -- 74
2018-11-28 22:00:00 8.7 0 Calma 2 Nordeste 0 -- -- 69
2018-11-28 21:00:00 9.8 0 Calma 2 Nordeste 0 -- -- 62
2018-11-28 14:00:00 -- -- -- -- -- -- -- -- --
2018-11-28 13:00:00 -- -- -- -- -- -- -- -- --
2018-11-28 12:00:00 -- -- -- -- -- -- -- -- --
2018-11-28 11:00:00 7.8 2 Sudoeste 5 Sur 0 -- -- 88
2018-11-28 10:00:00 4.2 0 Calma 2 Sudoeste 0 -- -- 97
2018-11-28 09:00:00 3.3 0 Calma 2 Sudeste 0 -- -- 95
2018-11-28 08:00:00 3.9 0 Calma 2 Nordeste 0 -- -- 95
2018-11-28 07:00:00 4.1 2 Nordeste 4 Nordeste 0 -- -- 95
2018-11-28 06:00:00 4.7 0 Calma 0 Calma 0 -- -- 93
2018-11-28 05:00:00 5.5 0 Calma 3 Nordeste 0 -- -- 91
2018-11-28 04:00:00 5.4 2 Nordeste 3 Nordeste 0 -- -- 92
2018-11-28 03:00:00 5.1 2 Nordeste 3 Norte 0 -- -- 94
2018-11-28 02:00:00 5.3 0 Calma 3 Nordeste 0 -- -- 92
2018-11-28 01:00:00 5.7 0 Calma 2 Nordeste 0 -- -- 91
2018-11-28 00:00:00 6.2 0 Calma 3 Nordeste 0 -- -- 88
2018-11-27 23:00:00 6.9 0 Calma 2 Nordeste 0 -- -- 85
2018-11-27 22:00:00 7.7 0 Calma 2 Sudeste 0 -- -- 82
2018-11-27 21:00:00 8.4 0 Calma 2 Norte 0 -- -- 78
2018-11-27 20:00:00 9.1 0 Calma 3 Noroeste 0 -- -- 74
2018-11-27 19:00:00 9.7 0 Calma 2 Oeste 0 -- -- 70
2018-11-27 18:00:00 11.3 0 Calma 6 Oeste 0 -- -- 65
2018-11-27 17:00:00 13.6 0 Calma 6 Noroeste 0 -- -- 56
2018-11-27 16:00:00 14.6 2 Noroeste 9 Sudoeste 0 -- -- 55
2018-11-27 15:00:00 14.5 3 Oeste 10 Sudoeste 0 -- -- 58
2018-11-27 14:00:00 13.3 5 Sudoeste 12 Sudoeste 0 -- -- 60
2018-11-27 13:00:00 12.3 5 Sur 11 Sur 0 -- -- 67
2018-11-27 12:00:00 10.2 2 Sur 5 Sudoeste 0 -- -- 83
2018-11-27 11:00:00 6.2 0 Calma 4 Sur 0 -- -- 97
2018-11-27 10:00:00 4.5 0 Calma 3 Norte 0 -- -- 99
2018-11-27 09:00:00 3.9 0 Calma 4 Sur 0 -- -- 98
2018-11-27 08:00:00 3.9 0 Calma 6 Sudeste 0 -- -- 98
2018-11-27 07:00:00 4.2 0 Calma 2 Nordeste 0 -- -- 98
2018-11-27 06:00:00 4.3 0 Calma 2 Nordeste 0 -- -- 97
2018-11-27 05:00:00 4.5 0 Calma 3 Norte 0 -- -- 96
2018-11-27 04:00:00 4.9 0 Calma 2 Nordeste 0 -- -- 95
2018-11-27 03:00:00 5.3 0 Calma 2 Sudeste 0 -- -- 93
2018-11-27 02:00:00 5.7 0 Calma 5 Norte 0 -- -- 93
2018-11-27 01:00:00 6.2 0 Calma 4 Nordeste 0 -- -- 92
2018-11-27 00:00:00 6.9 0 Calma 3 Norte 0 -- -- 89
2018-11-26 23:00:00 7.3 0 Calma 5 Norte 0 -- -- 85
2018-11-26 22:00:00 8 0 Calma 8 Oeste 0 -- -- 83
2018-11-26 21:00:00 8.7 2 Noroeste 8 Oeste 0 -- -- 80
2018-11-26 20:00:00 9.5 2 Norte 13 Oeste 0 -- -- 75
2018-11-26 19:00:00 10.1 3 Noroeste 10 Noroeste 0 -- -- 74
2018-11-26 18:00:00 10.9 2 Noroeste 12 Noroeste 0 -- -- 71
2018-11-26 17:00:00 11.7 5 Noroeste 22 Noroeste 0 -- -- 67
2018-11-26 16:00:00 12 8 Noroeste 24 Noroeste 0 -- -- 66
2018-11-26 15:00:00 11.7 8 Noroeste 26 Noroeste 0 -- -- 74
2018-11-26 14:00:00 11.5 5 Noroeste 30 Noroeste 0 -- -- 74
2018-11-26 13:00:00 10.9 10 Noroeste 35 Noroeste 0 -- -- 73
2018-11-26 12:00:00 10.6 9 Noroeste 31 Noroeste 0 -- -- 75
2018-11-26 11:00:00 9.5 6 Noroeste 23 Noroeste 0 -- -- 78
2018-11-26 10:00:00 8.2 8 Noroeste 28 Oeste 0 -- -- 81
2018-11-26 09:00:00 7.4 11 Noroeste 31 Oeste 0 -- -- 81
2018-11-26 08:00:00 7.1 6 Oeste 32 Oeste 0 -- -- 86
2018-11-26 07:00:00 7.2 15 Noroeste 36 Noroeste 0 -- -- 88
2018-11-26 06:00:00 7.3 13 Oeste 43 Oeste 0 -- -- 88
2018-11-26 05:00:00 7.9 10 Noroeste 42 Noroeste 0 -- -- 83
2018-11-26 04:00:00 8.4 26 Noroeste 56 Noroeste 0 -- -- 82
2018-11-26 03:00:00 8.9 32 Noroeste 67 Oeste 0 -- -- 82
2018-11-26 02:00:00 10.1 24 Oeste 55 Noroeste 0 -- -- 79
2018-11-26 01:00:00 11.3 28 Oeste 54 Oeste 0.2 -- -- 83
2018-11-26 00:00:00 12.5 17 Oeste 48 Sudoeste 0.4 -- -- 97
2018-11-25 23:00:00 11.8 22 Sudoeste 48 Sur 2 -- -- 99
2018-11-25 22:00:00 10.7 15 Sudoeste 45 Sudoeste 2.8 -- -- 98
2018-11-25 21:00:00 10.5 16 Sudoeste 53 Oeste 2.8 -- -- 95
2018-11-25 20:00:00 11.9 8 Sudoeste 36 Sudoeste 0.6 -- -- 91
2018-11-25 19:00:00 13.3 6 Oeste 38 Sudoeste 0 -- -- 83
2018-11-25 18:00:00 14.2 8 Oeste 24 Sudoeste 0 -- -- 77
2018-11-25 17:00:00 14.9 7 Sudoeste 24 Oeste 0 -- -- 75
2018-11-25 16:00:00 15.2 10 Oeste 37 Noroeste 0 -- -- 73
2018-11-25 15:00:00 15.2 18 Oeste 42 Noroeste 0 -- -- 72
2018-11-25 14:00:00 15.1 9 Oeste 42 Sudoeste 0 -- -- 78
2018-11-25 13:00:00 14.8 14 Sudoeste 49 Sur 0 -- -- 80
2018-11-25 12:00:00 13 16 Sudoeste 49 Sudoeste 0 -- -- 89
2018-11-25 11:00:00 13.2 21 Sudoeste 39 Sur 0 -- -- 90
2018-11-25 10:00:00 11.9 15 Sudoeste 35 Sur 0.2 -- -- 94
2018-11-25 09:00:00 11.4 8 Sudoeste 39 Sur 0.2 -- -- 98
2018-11-25 08:00:00 11.6 14 Sudoeste 38 Sudoeste 0 -- -- 96
2018-11-25 07:00:00 11.5 17 Sudoeste 38 Sur 0.2 -- -- 96
2018-11-25 06:00:00 11.2 4 Oeste 48 Sur 0.2 -- -- 97
2018-11-25 05:00:00 10.8 10 Sudoeste 33 Sudoeste 0.4 -- -- 98
2018-11-25 04:00:00 11.1 25 Sudoeste 57 Sudoeste 0.2 -- -- 95
2018-11-25 03:00:00 10.5 14 Sudoeste 34 Sur 0 -- -- 97
2018-11-25 02:00:00 10.2 22 Sur 51 Sur 0 -- -- 96
2018-11-25 01:00:00 10.3 24 Sur 40 Sur 0 -- -- 91
2018-11-25 00:00:00 10 26 Sur 42 Sur 0 -- -- 89
2018-11-24 23:00:00 9.9 18 Sur 38 Sur 0 -- -- 86
2018-11-24 22:00:00 9.9 18 Sur 40 Sudoeste 0 -- -- 84
2018-11-24 21:00:00 10 16 Sur 33 Sudoeste 0 -- -- 82
2018-11-24 20:00:00 10.2 14 Sur 24 Sur 0 -- -- 76
2018-11-24 19:00:00 10.8 6 Sudoeste 16 Sur 0 -- -- 70
2018-11-24 18:00:00 11.5 10 Sudoeste 25 Sur 0 -- -- 65
2018-11-24 17:00:00 13.7 10 Sudoeste 28 Sudoeste 0 -- -- 55
2018-11-24 16:00:00 14.7 9 Sudoeste 29 Sur 0 -- -- 57
2018-11-24 15:00:00 14.1 5 Oeste 18 Oeste 0 -- -- 60
2018-11-24 14:00:00 13.2 10 Sudoeste 35 Sur 0 -- -- 63
2018-11-24 13:00:00 12.5 9 Sur 14 Sur 0 -- -- 68
2018-11-24 12:00:00 10.8 6 Sudoeste 10 Sur 0 -- -- 79
2018-11-24 11:00:00 7.4 0 Calma 4 Sudoeste 0 -- -- 96
2018-11-24 10:00:00 4.5 0 Calma 3 Sudoeste 0 -- -- 99
2018-11-24 09:00:00 3.3 0 Calma 3 Nordeste 0 -- -- 100
2018-11-24 08:00:00 2.8 0 Calma 2 Este 0 -- -- 98
2018-11-24 07:00:00 3.3 0 Calma 2 Norte 0 -- -- 98
2018-11-24 06:00:00 3.7 0 Calma 4 Sudoeste 0 -- -- 97
2018-11-24 05:00:00 4 2 Sur 4 Sur 0 -- -- 97
2018-11-24 04:00:00 4.5 0 Calma 2 Nordeste 0 -- -- 96
2018-11-24 03:00:00 4.9 0 Calma 5 Sur 0 -- -- 95
2018-11-24 02:00:00 5.1 3 Sur 8 Sur 0 -- -- 94
2018-11-24 01:00:00 5.6 0 Calma 5 Nordeste 0 -- -- 92
2018-11-24 00:00:00 6.2 0 Calma 3 Nordeste 0 -- -- 90
2018-11-23 23:00:00 7.1 0 Calma 3 Sudeste 0 -- -- 86
2018-11-23 22:00:00 7.5 0 Calma 2 Oeste 0 -- -- 84
2018-11-23 21:00:00 7.8 0 Calma 2 Norte 0 -- -- 83
2018-11-23 20:00:00 8.2 0 Calma 2 Sur 0 -- -- 82
2018-11-23 19:00:00 9.3 0 Calma 4 Noroeste 0 -- -- 77
2018-11-23 18:00:00 10.5 0 Calma 6 Noroeste 0 -- -- 71
2018-11-23 17:00:00 12.7 2 Oeste 9 Oeste 0 -- -- 67
2018-11-23 16:00:00 12.8 2 Noroeste 12 Sudoeste 0 -- -- 66
2018-11-23 15:00:00 12.9 3 Noroeste 10 Oeste 0 -- -- 66
2018-11-23 14:00:00 12 3 Oeste 16 Oeste 0 -- -- 73
2018-11-23 13:00:00 10.7 3 Oeste 13 Sudoeste 0 -- -- 79
2018-11-23 12:00:00 10.4 2 Noroeste 11 Oeste 0 -- -- 86
2018-11-23 11:00:00 9.4 3 Oeste 10 Noroeste 0.2 -- -- 91
2018-11-23 10:00:00 8.5 3 Oeste 8 Noroeste 0 -- -- 96
2018-11-23 09:00:00 8.1 0 Calma 8 Noroeste 0 -- -- 98
2018-11-23 08:00:00 8 2 Noroeste 12 Noroeste 0 -- -- 97
2018-11-23 07:00:00 8.1 0 Calma 15 Noroeste 0 -- -- 97
2018-11-23 06:00:00 8.5 4 Noroeste 16 Noroeste 0.2 -- -- 97
2018-11-23 05:00:00 9.1 3 Noroeste 11 Noroeste 0 -- -- 99
2018-11-23 04:00:00 9.1 2 Oeste 6 Oeste 0 -- -- 99
2018-11-23 03:00:00 9 3 Sudoeste 12 Sudoeste 0.4 -- -- 98
2018-11-23 02:00:00 9.1 7 Sur 18 Sur 0.2 -- -- 97
2018-11-23 01:00:00 8.9 9 Sur 12 Sur 0.2 -- -- 98
2018-11-23 00:00:00 9.1 7 Sudoeste 13 Sudoeste 0.2 -- -- 95
2018-11-22 23:00:00 9.5 7 Sur 17 Sur 0 -- -- 90
2018-11-22 22:00:00 9.7 12 Sur 19 Sur 0 -- -- 88
2018-11-22 21:00:00 10.5 9 Sur 22 Sur 0 -- -- 81
2018-11-22 20:00:00 10.8 8 Sur 26 Sur 0 -- -- 80
2018-11-22 19:00:00 11 8 Sur 26 Sur 0 -- -- 84
2018-11-22 18:00:00 11.3 6 Sur 19 Sur 0 -- -- 84
2018-11-22 17:00:00 11.8 14 Sur 21 Sur 0 -- -- 78
2018-11-22 16:00:00 12.3 13 Sur 24 Sur 0 -- -- 79
2018-11-22 15:00:00 12.4 16 Sur 28 Sur 0 -- -- 78
2018-11-22 14:00:00 12.7 15 Sur 24 Sudoeste 0 -- -- 78
2018-11-22 13:00:00 12.2 13 Sur 21 Sur 0 -- -- 87
2018-11-22 12:00:00 11.2 9 Sur 16 Sur 0 -- -- 90
2018-11-22 11:00:00 10.9 4 Sur 15 Sur 0 -- -- 92
2018-11-22 10:00:00 10.1 2 Sur 18 Sur 0 -- -- 93
2018-11-22 09:00:00 9.5 6 Sur 17 Sudoeste 0 -- -- 93
2018-11-22 08:00:00 9.2 7 Sur 18 Sudoeste 0 -- -- 92
2018-11-22 07:00:00 8.9 4 Sur 15 Sur 0 -- -- 93
2018-11-22 06:00:00 8.8 5 Sur 13 Sur 0 -- -- 95
2018-11-22 05:00:00 8.7 6 Sur 10 Sur 0 -- -- 95
2018-11-22 04:00:00 8.8 3 Sur 8 Sur 0 -- -- 95
2018-11-22 03:00:00 8.8 3 Sur 11 Sur 0 -- -- 94
2018-11-22 02:00:00 8.7 3 Sudoeste 11 Sur 0 -- -- 94
2018-11-22 01:00:00 8.7 8 Sur 19 Sur 0.2 -- -- 95
2018-11-22 00:00:00 9.1 6 Sudoeste 13 Sur 0.2 -- -- 93
2018-11-21 23:00:00 9.2 7 Sur 13 Sudoeste 0 -- -- 96
2018-11-21 22:00:00 9.2 6 Sur 16 Sur 0 -- -- 95
2018-11-21 21:00:00 9.3 10 Sur 15 Sudoeste 0 -- -- 95
2018-11-21 20:00:00 9.2 5 Sur 17 Sur 0.8 -- -- 95
2018-11-21 19:00:00 10.4 0 Calma 5 Sur 0 -- -- 83
2018-11-21 18:00:00 11.3 0 Calma 9 Noroeste 0 -- -- 76
2018-11-21 17:00:00 12.3 3 Oeste 14 Oeste 0 -- -- 71
2018-11-21 16:00:00 11.8 3 Noroeste 12 Noroeste 0 -- -- 79
2018-11-21 15:00:00 12 5 Noroeste 15 Oeste 0 -- -- 78
2018-11-21 14:00:00 13 4 Oeste 24 Sudoeste 0.4 -- -- 81
2018-11-21 13:00:00 12.3 2 Oeste 28 Sur 0 -- -- 77
2018-11-21 12:00:00 11.7 18 Sur 32 Sur 0 -- -- 80
2018-11-21 11:00:00 10.7 12 Sudoeste 24 Sudoeste 0 -- -- 86
2018-11-21 10:00:00 9.3 8 Sudoeste 18 Sur 0 -- -- 91
2018-11-21 09:00:00 8.7 8 Sudoeste 15 Sur 0 -- -- 93
2018-11-21 08:00:00 9 7 Sudoeste 18 Oeste 0 -- -- 92
2018-11-21 07:00:00 9.1 6 Sur 24 Sudoeste 0 -- -- 92
2018-11-21 06:00:00 9.3 15 Sudoeste 29 Sur 0 -- -- 91
2018-11-21 05:00:00 9.1 12 Sudoeste 24 Sudoeste 0 -- -- 92
2018-11-21 04:00:00 9.1 8 Sudoeste 22 Sudoeste 0 -- -- 92
2018-11-21 03:00:00 9.2 8 Sur 23 Oeste 0 -- -- 92
2018-11-21 02:00:00 9.1 7 Sudoeste 23 Sudoeste 0 -- -- 92
2018-11-21 01:00:00 9.1 14 Sudoeste 27 Sudoeste 0 -- -- 92
2018-11-21 00:00:00 9.5 10 Sudoeste 24 Sur 0 -- -- 91
2018-11-20 23:00:00 9.8 5 Sudoeste 34 Oeste 0.2 -- -- 91
2018-11-20 22:00:00 10 5 Oeste 26 Oeste 0 -- -- 90
2018-11-20 21:00:00 9.7 5 Sudoeste 23 Sudoeste 1.6 -- -- 92
2018-11-20 20:00:00 10.8 13 Sudoeste 46 Sur 0 -- -- 82
2018-11-20 19:00:00 11.4 19 Sudoeste 37 Sur 0 -- -- 79
2018-11-20 18:00:00 11.3 10 Sudoeste 36 Oeste 0 -- -- 75
2018-11-20 17:00:00 12.4 8 Oeste 44 Oeste 0 -- -- 65
2018-11-20 16:00:00 13.2 19 Oeste 41 Oeste 0 -- -- 61
2018-11-20 15:00:00 12.4 17 Oeste 33 Oeste 0.2 -- -- 67
2018-11-20 14:00:00 11 12 Oeste 34 Oeste 0 -- -- 78
2018-11-20 13:00:00 10.6 6 Oeste 24 Oeste 0.4 -- -- 92
2018-11-20 12:00:00 10.3 5 Oeste 17 Oeste 0.4 -- -- 97
2018-11-20 11:00:00 10.3 5 Oeste 17 Sudoeste 0.2 -- -- 99
2018-11-20 10:00:00 9.8 7 Sudoeste 17 Sudoeste 0.4 -- -- 100
2018-11-20 09:00:00 9.5 6 Sudoeste 11 Sudoeste 0.8 -- -- 99
2018-11-20 08:00:00 9.7 2 Sudoeste 10 Sudoeste 0 -- -- 97
2018-11-20 07:00:00 9.9 5 Sudoeste 13 Sur 0 -- -- 95
2018-11-20 06:00:00 9.8 5 Sudoeste 13 Sudoeste 0 -- -- 94
2018-11-20 05:00:00 10 4 Sudoeste 13 Sur 0 -- -- 93
2018-11-20 04:00:00 10.1 3 Sur 10 Sudoeste 0 -- -- 95
2018-11-20 03:00:00 10.3 4 Oeste 14 Sudoeste 0 -- -- 94
2018-11-20 02:00:00 10.3 9 Sudoeste 22 Sudoeste 0.2 -- -- 96
2018-11-20 01:00:00 10.3 9 Sudoeste 18 Sudoeste 0 -- -- 95
2018-11-20 00:00:00 10.2 6 Sudoeste 9 Sudoeste 0 -- -- 97
2018-11-19 23:00:00 10.2 2 Sudoeste 9 Sudoeste 0.2 -- -- 96
2018-11-19 22:00:00 10.2 3 Sudoeste 10 Oeste 0 -- -- 94
2018-11-19 21:00:00 10.6 0 Calma 6 Oeste 0 -- -- 93
2018-11-19 20:00:00 11 0 Calma 11 Oeste 0 -- -- 88
2018-11-19 19:00:00 11.5 4 Noroeste 12 Oeste 0 -- -- 87
2018-11-19 18:00:00 11.9 3 Oeste 10 Oeste 0 -- -- 87
2018-11-19 17:00:00 12.4 2 Noroeste 9 Oeste 0 -- -- 82
2018-11-19 16:00:00 12.8 0 Calma 5 Oeste 0 -- -- 79
2018-11-19 15:00:00 12.3 0 Calma 5 Oeste 0 -- -- 83
2018-11-19 14:00:00 12 0 Calma 5 Noroeste 0 -- -- 86
2018-11-19 13:00:00 12.6 0 Calma 5 Sur 0 -- -- 85
2018-11-19 12:00:00 12.5 0 Calma 8 Nordeste 0 -- -- 86
2018-11-19 11:00:00 11 3 Nordeste 6 Este 0 -- -- 90
2018-11-19 10:00:00 10.2 0 Calma 3 Nordeste 0 -- -- 96
2018-11-19 09:00:00 9.5 0 Calma 2 Norte 0 -- -- 96
2018-11-19 08:00:00 9.7 0 Calma 4 Nordeste 0 -- -- 96
2018-11-19 07:00:00 9.8 2 Nordeste 5 Este 0 -- -- 96
2018-11-19 06:00:00 9.8 3 Nordeste 5 Este 0 -- -- 96
2018-11-19 05:00:00 9.8 0 Calma 4 Este 0 -- -- 96
2018-11-19 04:00:00 10 0 Calma 6 Este 0 -- -- 95
2018-11-19 03:00:00 10.1 4 Este 5 Este 0 -- -- 96
2018-11-19 02:00:00 10.3 3 Nordeste 8 Sudeste 0 -- -- 94
2018-11-19 01:00:00 10.1 3 Este 10 Este 0 -- -- 95
2018-11-19 00:00:00 10.1 5 Este 14 Este 0 -- -- 95
2018-11-18 23:00:00 10.5 4 Este 16 Sudeste 0 -- -- 93
2018-11-18 22:00:00 10.6 4 Sudeste 14 Este 0.2 -- -- 94
2018-11-18 21:00:00 10.7 3 Sudeste 8 Sur 0.4 -- -- 96
2018-11-18 20:00:00 10.8 3 Sudoeste 15 Sudeste 0.8 -- -- 96
2018-11-18 19:00:00 11 3 Sudeste 11 Sudeste 0 -- -- 95
2018-11-18 18:00:00 11.4 2 Sudeste 11 Este 0.2 -- -- 94
2018-11-18 17:00:00 11.4 4 Este 16 Este 0 -- -- 95
2018-11-18 16:00:00 11.2 8 Este 19 Este 0.6 -- -- 96
2018-11-18 15:00:00 11.2 3 Este 11 Este 1.2 -- -- 96
2018-11-18 14:00:00 11.3 3 Este 13 Nordeste 1 -- -- 96
2018-11-18 13:00:00 11.1 3 Este 12 Nordeste 1.2 -- -- 94
2018-11-18 12:00:00 11.2 2 Sur 12 Sudeste 0.2 -- -- 92
2018-11-18 11:00:00 11.2 5 Este 19 Este 0 -- -- 85
2018-11-18 10:00:00 10.7 2 Este 7 Este 0 -- -- 87
2018-11-18 09:00:00 10.1 0 Calma 6 Nordeste 0 -- -- 88
2018-11-18 08:00:00 10.2 4 Este 10 Este 0 -- -- 87
2018-11-18 07:00:00 10.7 0 Calma 9 Este 0 -- -- 85
2018-11-18 06:00:00 11.7 3 Este 9 Este 0 -- -- 80
2018-11-18 05:00:00 12.2 2 Este 16 Este 0 -- -- 78
2018-11-18 04:00:00 12.8 4 Sudeste 10 Sudeste 0 -- -- 74
2018-11-18 03:00:00 12.3 0 Calma 10 Sur 0 -- -- 80
2018-11-18 02:00:00 12.2 5 Sur 13 Sudoeste 0 -- -- 81
2018-11-18 01:00:00 12.3 3 Sudeste 22 Sudoeste 0 -- -- 80
2018-11-18 00:00:00 12.5 0 Calma 13 Este 0 -- -- 78
2018-11-17 23:00:00 13.2 3 Este 12 Este 0 -- -- 74
2018-11-17 22:00:00 13.5 3 Este 12 Este 0 -- -- 73
2018-11-17 21:00:00 14.2 3 Nordeste 9 Nordeste 0 -- -- 72
2018-11-17 20:00:00 14.9 2 Sur 12 Sudeste 0 -- -- 69
2018-11-17 19:00:00 15.7 4 Sudeste 10 Sur 0 -- -- 65
2018-11-17 18:00:00 16.5 4 Sudeste 11 Sudeste 0 -- -- 61
2018-11-17 17:00:00 17.3 4 Este 13 Este 0 -- -- 65
2018-11-17 16:00:00 18.7 5 Este 15 Este 0 -- -- 57
2018-11-17 15:00:00 19.8 4 Sur 13 Sudeste 0 -- -- 53
2018-11-17 14:00:00 18 5 Nordeste 10 Este 0 -- -- 61
2018-11-17 13:00:00 18.2 4 Sudeste 11 Nordeste 0 -- -- 62
2018-11-17 12:00:00 17.2 6 Este 15 Este 0 -- -- 65
2018-11-17 11:00:00 14.2 5 Este 12 Este 0 -- -- 74
2018-11-17 10:00:00 11.8 3 Sudeste 8 Este 0 -- -- 82
2018-11-17 09:00:00 9.9 0 Calma 8 Nordeste 0 -- -- 91
2018-11-17 08:00:00 9.9 3 Nordeste 8 Nordeste 0 -- -- 90
2018-11-17 07:00:00 9.7 3 Nordeste 6 Nordeste 0 -- -- 92
2018-11-17 06:00:00 9.9 0 Calma 9 Nordeste 0 -- -- 91
2018-11-17 05:00:00 10.3 0 Calma 8 Este 0 -- -- 91
2018-11-17 04:00:00 10.2 4 Nordeste 8 Nordeste 0 -- -- 91
2018-11-17 03:00:00 10.8 0 Calma 7 Este 0 -- -- 88
2018-11-17 02:00:00 11.2 4 Nordeste 5 Nordeste 0 -- -- 87
2018-11-17 01:00:00 11.6 4 Nordeste 6 Nordeste 0 -- -- 85
2018-11-17 00:00:00 12 2 Este 6 Oeste 0 -- -- 83
2018-11-16 23:00:00 12.7 3 Sudeste 13 Este 0 -- -- 79
2018-11-16 22:00:00 13.4 0 Calma 8 Este 0 -- -- 77
2018-11-16 21:00:00 13.9 4 Nordeste 7 Nordeste 0 -- -- 74
2018-11-16 20:00:00 14.9 0 Calma 5 Nordeste 0 -- -- 68
2018-11-16 19:00:00 15.9 0 Calma 4 Nordeste 0 -- -- 64
2018-11-16 18:00:00 17.4 0 Calma 7 Oeste 0 -- -- 58
2018-11-16 17:00:00 20.2 4 Sudoeste 12 Sur 0 -- -- 52
2018-11-16 16:00:00 20.2 4 Sur 11 Sur 0 -- -- 50
2018-11-16 15:00:00 20.1 4 Sudeste 11 Nordeste 0 -- -- 56
2018-11-16 14:00:00 18.8 4 Sudeste 14 Este 0 -- -- 60
2018-11-16 13:00:00 18.6 6 Este 18 Este 0 -- -- 60
2018-11-16 12:00:00 16.9 6 Este 14 Este 0 -- -- 70
2018-11-16 11:00:00 15.8 5 Este 15 Este 0 -- -- 75
2018-11-16 10:00:00 13.4 3 Nordeste 6 Este 0 -- -- 89
2018-11-16 09:00:00 12.1 0 Calma 6 Este 0 -- -- 92
2018-11-16 08:00:00 12.1 2 Este 9 Este 0 -- -- 91
2018-11-16 07:00:00 12.1 0 Calma 12 Este 0 -- -- 91
2018-11-16 06:00:00 12.4 8 Este 14 Este 0 -- -- 90
2018-11-16 05:00:00 12.5 4 Este 13 Este 0 -- -- 89
2018-11-16 04:00:00 12.2 0 Calma 7 Este 0 -- -- 91
2018-11-16 03:00:00 12.6 3 Este 8 Este 0 -- -- 89
2018-11-16 02:00:00 12.6 2 Este 5 Este 0 -- -- 88
2018-11-16 01:00:00 12.6 0 Calma 5 Nordeste 0 -- -- 88
2018-11-16 00:00:00 12.9 0 Calma 5 Este 0 -- -- 87
2018-11-15 23:00:00 13.1 3 Este 11 Este 0 -- -- 84
2018-11-15 22:00:00 13.5 4 Este 13 Este 0 -- -- 82
2018-11-15 21:00:00 14 5 Este 10 Este 0 -- -- 80
2018-11-15 20:00:00 14.5 5 Nordeste 10 Este 0 -- -- 77
2018-11-15 19:00:00 15.3 6 Este 10 Este 0 -- -- 73
2018-11-15 18:00:00 16.2 4 Este 9 Este 0 -- -- 70
2018-11-15 17:00:00 17.7 2 Este 14 Este 0 -- -- 61
2018-11-15 16:00:00 19.3 4 Este 14 Este 0 -- -- 61
2018-11-15 15:00:00 18.8 6 Este 13 Nordeste 0 -- -- 63
2018-11-15 14:00:00 16.6 6 Este 14 Este 0 -- -- 72
2018-11-15 13:00:00 16.2 6 Este 17 Sudeste 0 -- -- 74
2018-11-15 12:00:00 14 3 Sudeste 10 Este 0 -- -- 88
2018-11-15 11:00:00 11.5 3 Este 13 Este 0 -- -- 93
2018-11-15 10:00:00 11.5 3 Sur 15 Este 0 -- -- 93
2018-11-15 09:00:00 9.3 3 Nordeste 9 Este 0 -- -- 97
2018-11-15 08:00:00 9.6 2 Nordeste 5 Este 0 -- -- 95
2018-11-15 07:00:00 9.8 0 Calma 8 Este 0 -- -- 94
2018-11-15 06:00:00 10.1 4 Este 10 Este 0 -- -- 93
2018-11-15 05:00:00 10.3 2 Norte 8 Este 0 -- -- 92
2018-11-15 04:00:00 10.7 0 Calma 11 Este 0 -- -- 90
2018-11-15 03:00:00 11 3 Este 9 Este 0 -- -- 89
2018-11-15 02:00:00 12.2 3 Este 18 Este 0 -- -- 83
2018-11-15 01:00:00 12.4 9 Este 16 Este 0 -- -- 84
2018-11-15 00:00:00 12.6 3 Este 12 Este 0 -- -- 84
2018-11-14 23:00:00 13.3 6 Este 17 Este 0 -- -- 82
2018-11-14 22:00:00 13.9 8 Este 15 Nordeste 0 -- -- 80
2018-11-14 21:00:00 14.2 6 Este 15 Este 0 -- -- 81
2018-11-14 20:00:00 14.6 8 Este 18 Nordeste 0 -- -- 82
2018-11-14 19:00:00 14.9 4 Este 13 Este 0 -- -- 80
2018-11-14 18:00:00 15.9 4 Este 10 Este 0 -- -- 77
2018-11-14 17:00:00 16.7 4 Este 14 Este 0 -- -- 74
2018-11-14 16:00:00 15.7 6 Este 21 Este 0 -- -- 77
2018-11-14 15:00:00 15.9 13 Este 21 Nordeste 0 -- -- 76
2018-11-14 14:00:00 15.5 5 Este 14 Este 0 -- -- 77
2018-11-14 13:00:00 15.9 4 Este 20 Este 0 -- -- 75
2018-11-14 12:00:00 15.4 4 Este 12 Este 0 -- -- 77
2018-11-14 11:00:00 13.3 7 Este 15 Este 0 -- -- 84
2018-11-14 10:00:00 10.9 3 Este 10 Este 0 -- -- 94
2018-11-14 09:00:00 9.9 0 Calma 9 Este 0 -- -- 95
2018-11-14 08:00:00 9.9 2 Nordeste 11 Este 0 -- -- 96
2018-11-14 07:00:00 9.9 0 Calma 9 Este 0 -- -- 97
2018-11-14 06:00:00 10 2 Nordeste 7 Norte 0 -- -- 98
2018-11-14 05:00:00 10.5 2 Nordeste 11 Este 0 -- -- 96
2018-11-14 04:00:00 10.5 2 Sudeste 11 Este 0 -- -- 97
2018-11-14 03:00:00 11 4 Este 11 Este 0 -- -- 95
2018-11-14 02:00:00 11.7 2 Nordeste 9 Este 0 -- -- 93
2018-11-14 01:00:00 11.7 4 Este 16 Este 0 -- -- 93
2018-11-14 00:00:00 11.8 6 Este 15 Este 0 -- -- 92
2018-11-13 23:00:00 13.1 3 Este 17 Este 0 -- -- 87
2018-11-13 22:00:00 13.7 7 Este 16 Nordeste 0 -- -- 85
2018-11-13 21:00:00 14.1 6 Este 19 Este 0 -- -- 84
2018-11-13 20:00:00 14.7 9 Este 19 Este 0 -- -- 82
2018-11-13 19:00:00 14.7 4 Este 15 Este 0 -- -- 82
2018-11-13 18:00:00 15.2 6 Este 17 Este 0 -- -- 79
2018-11-13 17:00:00 16.4 9 Este 22 Este 0 -- -- 74
2018-11-13 16:00:00 17.4 10 Este 22 Este 0 -- -- 69
2018-11-13 15:00:00 17.8 8 Este 19 Nordeste 0 -- -- 69
2018-11-13 14:00:00 19 5 Sudeste 14 Sudeste 0 -- -- 68
2018-11-13 13:00:00 16.6 4 Este 13 Este 0 -- -- 77
2018-11-13 12:00:00 15.3 4 Este 15 Nordeste 0 -- -- 82
2018-11-13 11:00:00 12.7 4 Este 13 Este 0 -- -- 96
2018-11-13 10:00:00 11 3 Este 11 Nordeste 0 -- -- 97
2018-11-13 09:00:00 9.6 0 Calma 11 Este 0 -- -- 98
2018-11-13 08:00:00 9.5 4 Este 9 Nordeste 0 -- -- 98
2018-11-13 07:00:00 9.6 5 Nordeste 10 Nordeste 0 -- -- 96
2018-11-13 06:00:00 10.2 5 Este 17 Este 0.2 -- -- 97
2018-11-13 05:00:00 10 0 Calma 4 Este 0 -- -- 98
2018-11-13 04:00:00 10.1 4 Norte 5 Norte 0 -- -- 98
2018-11-13 03:00:00 10.3 3 Este 5 Nordeste 0 -- -- 97
2018-11-13 02:00:00 10.6 0 Calma 3 Norte 0 -- -- 96
2018-11-13 01:00:00 10.7 0 Calma 4 Nordeste 0 -- -- 96
2018-11-13 00:00:00 11 0 Calma 5 Nordeste 0 -- -- 96
2018-11-12 23:00:00 11.1 2 Este 4 Este 0 -- -- 95
2018-11-12 22:00:00 11.5 0 Calma 6 Norte 0 -- -- 93
2018-11-12 21:00:00 12.2 0 Calma 6 Noroeste 0 -- -- 92
2018-11-12 20:00:00 12.9 2 Noroeste 11 Noroeste 0 -- -- 89
2018-11-12 19:00:00 13.4 3 Noroeste 8 Oeste 0 -- -- 87
2018-11-12 18:00:00 14 3 Norte 8 Oeste 0 -- -- 86
2018-11-12 17:00:00 14.6 0 Calma 14 Sur 0 -- -- 77
2018-11-12 16:00:00 14.9 6 Sur 15 Sur 0 -- -- 77
2018-11-12 15:00:00 14.4 7 Sur 24 Sur 0 -- -- 81
2018-11-12 14:00:00 13.7 5 Sudeste 14 Este 0.2 -- -- 90
2018-11-12 13:00:00 13.4 3 Sudeste 14 Sur 0 -- -- 90
2018-11-12 12:00:00 12.6 5 Este 12 Este 0 -- -- 91
2018-11-12 11:00:00 11.7 3 Sur 16 Sur 0.4 -- -- 98
2018-11-12 10:00:00 11.4 11 Sur 24 Sur 1 -- -- 98
2018-11-12 09:00:00 11.2 13 Sur 35 Sudoeste 0.8 -- -- 97
2018-11-12 08:00:00 11.4 13 Sur 27 Sur 0.2 -- -- 94
2018-11-12 07:00:00 11.8 6 Sur 22 Sur 0 -- -- 87
2018-11-12 06:00:00 11.8 7 Sur 21 Sur 0 -- -- 87
2018-11-12 05:00:00 11.8 8 Sur 22 Sudeste 0 -- -- 87
2018-11-12 04:00:00 11.7 11 Sur 33 Sur 0 -- -- 88
2018-11-12 03:00:00 11.7 8 Sur 19 Sur 0 -- -- 91
2018-11-12 02:00:00 11.2 0 Calma 13 Oeste 0 -- -- 94
2018-11-12 01:00:00 12.2 3 Noroeste 18 Sur 0 -- -- 92
2018-11-12 00:00:00 12.8 7 Sur 22 Sur 0 -- -- 91
2018-11-11 23:00:00 12.9 8 Sudoeste 15 Sudoeste 0 -- -- 94
2018-11-11 22:00:00 13.4 4 Sudoeste 21 Sur 0 -- -- 91
2018-11-11 21:00:00 14 8 Sur 27 Sudoeste 0 -- -- 88
2018-11-11 20:00:00 13.9 7 Sur 23 Sur 0 -- -- 87
2018-11-11 19:00:00 14.2 10 Sur 33 Sur 0 -- -- 84
2018-11-11 18:00:00 14.8 13 Sur 27 Sur 0 -- -- 83
2018-11-11 17:00:00 16.2 17 Sur 32 Sur 0 -- -- 79
2018-11-11 16:00:00 16.3 22 Sur 29 Sur 0 -- -- 74
2018-11-11 15:00:00 18.3 14 Sudoeste 33 Sur 0 -- -- 66
2018-11-11 14:00:00 16.3 20 Sur 33 Sur 0.2 -- -- 76
2018-11-11 13:00:00 16.1 12 Sur 23 Sur 0 -- -- 84
2018-11-11 12:00:00 14.9 14 Sur 26 Sur 0 -- -- 92
2018-11-11 11:00:00 14 15 Sur 22 Sur 0 -- -- 97
2018-11-11 10:00:00 13.4 10 Sur 21 Sur 0 -- -- 100
2018-11-11 09:00:00 12.9 4 Sur 13 Sudoeste 0 -- -- 100
2018-11-11 08:00:00 12.8 4 Sudoeste 14 Oeste 0.2 -- -- 100
2018-11-11 07:00:00 12.8 5 Sudoeste 12 Sudoeste 0 -- -- 100
2018-11-11 06:00:00 12.9 4 Sudoeste 19 Sur 0 -- -- 99
2018-11-11 05:00:00 13 8 Sur 19 Sudoeste 0 -- -- 99
2018-11-11 04:00:00 13.1 11 Sudoeste 34 Sudoeste 0 -- -- 99
2018-11-11 03:00:00 12.9 11 Sudoeste 27 Sudoeste 0 -- -- 100
2018-11-11 02:00:00 12.6 8 Sudoeste 21 Sur 0.4 -- -- 100
2018-11-11 01:00:00 12.4 11 Sur 31 Sur 0.4 -- -- 100
2018-11-11 00:00:00 12.4 19 Sur 36 Sur 0.2 -- -- 100
2018-11-10 23:00:00 12.3 14 Sur 30 Sur 0 -- -- 99
2018-11-10 22:00:00 11.9 9 Sur 19 Sur 0 -- -- 99
2018-11-10 21:00:00 11.9 11 Sudoeste 25 Sudoeste 0 -- -- 98
2018-11-10 20:00:00 12.1 12 Sur 30 Sur 0 -- -- 95
2018-11-10 19:00:00 12.3 16 Sur 28 Sur 0 -- -- 91
2018-11-10 18:00:00 12.4 18 Sur 30 Sur 0 -- -- 90
2018-11-10 17:00:00 13.8 16 Sudoeste 36 Sudoeste 0 -- -- 81
2018-11-10 16:00:00 14.7 26 Sudoeste 43 Sudoeste 0 -- -- 76
2018-11-10 15:00:00 13.6 15 Sur 36 Sudoeste 0 -- -- 80
2018-11-10 14:00:00 13.1 19 Sudoeste 39 Sudoeste 0 -- -- 81
2018-11-10 13:00:00 12.6 26 Sudoeste 41 Sur 0 -- -- 82
2018-11-10 12:00:00 12.5 24 Sudoeste 42 Sudoeste 0 -- -- 82
2018-11-10 11:00:00 12.1 15 Sudoeste 30 Sur 0 -- -- 82
2018-11-10 10:00:00 11.5 11 Sudoeste 26 Sudoeste 0 -- -- 83
2018-11-10 09:00:00 11.1 8 Sudoeste 18 Sudoeste 0 -- -- 84
2018-11-10 08:00:00 10.7 7 Sudoeste 20 Sudoeste 0 -- -- 85
2018-11-10 07:00:00 10.9 15 Sudoeste 28 Sudoeste 0 -- -- 84
2018-11-10 06:00:00 10.6 9 Sur 23 Sur 0 -- -- 84
2018-11-10 05:00:00 10.7 10 Sudoeste 33 Sudoeste 0 -- -- 83
2018-11-10 04:00:00 10.9 14 Sur 28 Sur 0 -- -- 80
2018-11-10 03:00:00 10.9 9 Sudoeste 20 Sur 0 -- -- 78
2018-11-10 02:00:00 10.7 10 Sudoeste 20 Sudoeste 0 -- -- 80
2018-11-10 01:00:00 10.9 8 Sudoeste 17 Sudoeste 0 -- -- 79
2018-11-10 00:00:00 10.7 6 Sudoeste 13 Sudoeste 0 -- -- 81
2018-11-09 23:00:00 10.8 10 Sudoeste 15 Sur 0 -- -- 77
2018-11-09 22:00:00 10.8 8 Sudoeste 15 Sudoeste 0 -- -- 75
2018-11-09 21:00:00 10.6 6 Sudoeste 11 Sudoeste 0 -- -- 75
2018-11-09 20:00:00 10.8 5 Sudoeste 13 Oeste 0 -- -- 74
2018-11-09 19:00:00 10.6 4 Oeste 10 Oeste 0 -- -- 73
2018-11-09 18:00:00 11.1 5 Oeste 23 Oeste 0 -- -- 70
2018-11-09 17:00:00 12.1 9 Noroeste 22 Noroeste 0 -- -- 64
2018-11-09 16:00:00 13.3 6 Noroeste 19 Oeste 0 -- -- 61
2018-11-09 15:00:00 14.1 8 Oeste 22 Oeste 0 -- -- 60
2018-11-09 14:00:00 12.7 8 Oeste 25 Oeste 0 -- -- 67
2018-11-09 13:00:00 12 9 Oeste 24 Oeste 0 -- -- 74
2018-11-09 12:00:00 10.5 3 Noroeste 20 Oeste 0 -- -- 80
2018-11-09 11:00:00 8.8 9 Oeste 21 Oeste 0 -- -- 86
2018-11-09 10:00:00 7.3 5 Noroeste 18 Oeste 0 -- -- 95
2018-11-09 09:00:00 6.7 5 Noroeste 21 Oeste 0 -- -- 96
2018-11-09 08:00:00 6.4 4 Noroeste 15 Oeste 0 -- -- 97
2018-11-09 07:00:00 6.6 4 Noroeste 20 Oeste 0 -- -- 96
2018-11-09 06:00:00 6.8 12 Oeste 27 Noroeste 0 -- -- 93
2018-11-09 05:00:00 7.2 10 Noroeste 30 Noroeste 0 -- -- 93
2018-11-09 04:00:00 7.7 6 Noroeste 27 Oeste 0 -- -- 93
2018-11-09 03:00:00 7.9 4 Oeste 17 Noroeste 0 -- -- 92
2018-11-09 02:00:00 7.5 4 Oeste 27 Noroeste 0.2 -- -- 91
2018-11-09 01:00:00 7.9 9 Oeste 26 Oeste 0 -- -- 86
2018-11-09 00:00:00 8.1 5 Oeste 18 Oeste 0 -- -- 90